sensor_id;sensor_type;location;lat;lon;timestamp;P1;P2;P0
31330;PMS5003;34067;39.548;-76.088;2023-03-23T00:02:17;6;6;
31330;PMS5003;34067;39.548;-76.088;2023-03-23T00:04:45;6;6;
31330;PMS5003;34067;39.548;-76.088;2023-03-23T00:07:13;5;5;
31330;PMS5003;34067;39.548;-76.088;2023-03-23T00:09:41;10;8;
31330;PMS5003;34067;39.548;-76.088;2023-03-23T00:12:09;8;7;
31330;PMS5003;34067;39.548;-76.088;2023-03-23T00:14:37;6;5;
31330;PMS5003;34067;39.548;-76.088;2023-03-23T00:17:05;8;6;
31330;PMS5003;34067;39.548;-76.088;2023-03-23T00:19:33;7;7;
31330;PMS5003;34067;39.548;-76.088;2023-03-23T00:22:02;7;6;
31330;PMS5003;34067;39.548;-76.088;2023-03-23T00:24:30;8;7;
31330;PMS5003;34067;39.548;-76.088;2023-03-23T00:26:58;5;5;
31330;PMS5003;34067;39.548;-76.088;2023-03-23T00:29:26;6;6;
31330;PMS5003;34067;39.548;-76.088;2023-03-23T00:31:54;6;6;
31330;PMS5003;34067;39.548;-76.088;2023-03-23T00:34:22;4;4;
31330;PMS5003;34067;39.548;-76.088;2023-03-23T00:36:52;5;5;
31330;PMS5003;34067;39.548;-76.088;2023-03-23T00:39:22;8;6;
31330;PMS5003;34067;39.548;-76.088;2023-03-23T00:41:51;6;6;
31330;PMS5003;34067;39.548;-76.088;2023-03-23T00:44:19;7;7;
31330;PMS5003;34067;39.548;-76.088;2023-03-23T00:46:47;8;8;
31330;PMS5003;34067;39.548;-76.088;2023-03-23T00:49:16;9;9;
31330;PMS5003;34067;39.548;-76.088;2023-03-23T00:51:46;7;7;
31330;PMS5003;34067;39.548;-76.088;2023-03-23T00:54:14;6;6;
31330;PMS5003;34067;39.548;-76.088;2023-03-23T00:56:42;7;7;
31330;PMS5003;34067;39.548;-76.088;2023-03-23T00:59:10;9;8;
31330;PMS5003;34067;39.548;-76.088;2023-03-23T01:01:38;7;7;
31330;PMS5003;34067;39.548;-76.088;2023-03-23T01:04:06;7;7;
31330;PMS5003;34067;39.548;-76.088;2023-03-23T01:06:36;8;7;
31330;PMS5003;34067;39.548;-76.088;2023-03-23T01:09:07;8;7;
31330;PMS5003;34067;39.548;-76.088;2023-03-23T01:11:37;8;8;
31330;PMS5003;34067;39.548;-76.088;2023-03-23T01:14:05;9;8;
31330;PMS5003;34067;39.548;-76.088;2023-03-23T01:16:33;7;7;
31330;PMS5003;34067;39.548;-76.088;2023-03-23T01:19:01;9;8;
31330;PMS5003;34067;39.548;-76.088;2023-03-23T01:21:30;7;7;
31330;PMS5003;34067;39.548;-76.088;2023-03-23T01:23:57;9;8;
31330;PMS5003;34067;39.548;-76.088;2023-03-23T01:26:26;9;8;
31330;PMS5003;34067;39.548;-76.088;2023-03-23T01:28:55;7;6;
31330;PMS5003;34067;39.548;-76.088;2023-03-23T01:31:24;7;7;
31330;PMS5003;34067;39.548;-76.088;2023-03-23T01:33:53;8;7;
31330;PMS5003;34067;39.548;-76.088;2023-03-23T01:36:22;9;9;
31330;PMS5003;34067;39.548;-76.088;2023-03-23T01:38:52;11;11;
31330;PMS5003;34067;39.548;-76.088;2023-03-23T01:41:21;11;11;
31330;PMS5003;34067;39.548;-76.088;2023-03-23T01:43:54;12;10;
31330;PMS5003;34067;39.548;-76.088;2023-03-23T01:46:25;12;11;
31330;PMS5003;34067;39.548;-76.088;2023-03-23T01:48:53;8;8;
31330;PMS5003;34067;39.548;-76.088;2023-03-23T01:51:24;10;10;
31330;PMS5003;34067;39.548;-76.088;2023-03-23T01:53:54;12;12;
31330;PMS5003;34067;39.548;-76.088;2023-03-23T01:56:28;14;14;
31330;PMS5003;34067;39.548;-76.088;2023-03-23T01:58:59;8;8;
31330;PMS5003;34067;39.548;-76.088;2023-03-23T02:01:28;11;8;
31330;PMS5003;34067;39.548;-76.088;2023-03-23T02:03:56;7;7;
31330;PMS5003;34067;39.548;-76.088;2023-03-23T02:06:29;8;7;
31330;PMS5003;34067;39.548;-76.088;2023-03-23T02:08:57;8;8;
31330;PMS5003;34067;39.548;-76.088;2023-03-23T02:11:25;8;8;
31330;PMS5003;34067;39.548;-76.088;2023-03-23T02:13:54;8;8;
31330;PMS5003;34067;39.548;-76.088;2023-03-23T02:16:26;13;13;
31330;PMS5003;34067;39.548;-76.088;2023-03-23T02:19:05;12;12;
31330;PMS5003;34067;39.548;-76.088;2023-03-23T02:21:55;13;12;
31330;PMS5003;34067;39.548;-76.088;2023-03-23T02:24:59;15;14;
31330;PMS5003;34067;39.548;-76.088;2023-03-23T02:27:47;12;12;
31330;PMS5003;34067;39.548;-76.088;2023-03-23T02:30:32;16;16;
31330;PMS5003;34067;39.548;-76.088;2023-03-23T02:33:44;17;15;
31330;PMS5003;34067;39.548;-76.088;2023-03-23T02:36:20;12;12;
31330;PMS5003;34067;39.548;-76.088;2023-03-23T02:38:56;12;11;
31330;PMS5003;34067;39.548;-76.088;2023-03-23T02:41:31;15;13;
31330;PMS5003;34067;39.548;-76.088;2023-03-23T02:44:03;7;7;
31330;PMS5003;34067;39.548;-76.088;2023-03-23T02:46:33;10;10;
31330;PMS5003;34067;39.548;-76.088;2023-03-23T02:49:02;10;9;
31330;PMS5003;34067;39.548;-76.088;2023-03-23T02:51:33;8;8;
31330;PMS5003;34067;39.548;-76.088;2023-03-23T02:54:03;10;9;
31330;PMS5003;34067;39.548;-76.088;2023-03-23T02:56:33;9;9;
31330;PMS5003;34067;39.548;-76.088;2023-03-23T02:59:02;7;7;
31330;PMS5003;34067;39.548;-76.088;2023-03-23T03:02:04;9;9;
31330;PMS5003;34067;39.548;-76.088;2023-03-23T03:04:37;9;9;
31330;PMS5003;34067;39.548;-76.088;2023-03-23T03:07:17;8;8;
31330;PMS5003;34067;39.548;-76.088;2023-03-23T03:09:55;9;9;
31330;PMS5003;34067;39.548;-76.088;2023-03-23T03:12:29;9;9;
31330;PMS5003;34067;39.548;-76.088;2023-03-23T03:15:08;15;11;
31330;PMS5003;34067;39.548;-76.088;2023-03-23T03:17:46;10;10;
31330;PMS5003;34067;39.548;-76.088;2023-03-23T03:20:20;12;12;
31330;PMS5003;34067;39.548;-76.088;2023-03-23T03:22:51;15;14;
31330;PMS5003;34067;39.548;-76.088;2023-03-23T03:25:21;13;12;
31330;PMS5003;34067;39.548;-76.088;2023-03-23T03:27:51;12;11;
31330;PMS5003;34067;39.548;-76.088;2023-03-23T03:30:22;10;10;
31330;PMS5003;34067;39.548;-76.088;2023-03-23T03:32:55;9;9;
31330;PMS5003;34067;39.548;-76.088;2023-03-23T03:35:23;10;10;
31330;PMS5003;34067;39.548;-76.088;2023-03-23T03:37:52;11;8;
31330;PMS5003;34067;39.548;-76.088;2023-03-23T03:40:22;11;10;
31330;PMS5003;34067;39.548;-76.088;2023-03-23T03:42:50;12;11;
31330;PMS5003;34067;39.548;-76.088;2023-03-23T03:45:19;11;10;
31330;PMS5003;34067;39.548;-76.088;2023-03-23T03:47:47;9;8;
31330;PMS5003;34067;39.548;-76.088;2023-03-23T03:50:15;8;8;
31330;PMS5003;34067;39.548;-76.088;2023-03-23T03:52:43;9;9;
31330;PMS5003;34067;39.548;-76.088;2023-03-23T03:55:11;8;8;
31330;PMS5003;34067;39.548;-76.088;2023-03-23T03:57:40;9;8;
31330;PMS5003;34067;39.548;-76.088;2023-03-23T04:00:08;9;8;
31330;PMS5003;34067;39.548;-76.088;2023-03-23T04:02:37;7;6;
31330;PMS5003;34067;39.548;-76.088;2023-03-23T04:05:05;6;6;
31330;PMS5003;34067;39.548;-76.088;2023-03-23T04:07:34;9;9;
31330;PMS5003;34067;39.548;-76.088;2023-03-23T04:10:02;8;7;
31330;PMS5003;34067;39.548;-76.088;2023-03-23T04:12:32;7;7;
31330;PMS5003;34067;39.548;-76.088;2023-03-23T04:15:00;7;7;
31330;PMS5003;34067;39.548;-76.088;2023-03-23T04:17:28;7;6;
31330;PMS5003;34067;39.548;-76.088;2023-03-23T04:19:56;6;6;
31330;PMS5003;34067;39.548;-76.088;2023-03-23T04:22:25;8;7;
31330;PMS5003;34067;39.548;-76.088;2023-03-23T04:24:53;9;8;
31330;PMS5003;34067;39.548;-76.088;2023-03-23T04:27:21;7;7;
31330;PMS5003;34067;39.548;-76.088;2023-03-23T04:29:49;8;7;
31330;PMS5003;34067;39.548;-76.088;2023-03-23T04:32:17;7;7;
31330;PMS5003;34067;39.548;-76.088;2023-03-23T04:34:45;8;8;
31330;PMS5003;34067;39.548;-76.088;2023-03-23T04:37:13;9;9;
31330;PMS5003;34067;39.548;-76.088;2023-03-23T04:39:42;11;10;
31330;PMS5003;34067;39.548;-76.088;2023-03-23T04:42:10;10;9;
31330;PMS5003;34067;39.548;-76.088;2023-03-23T04:44:38;10;9;
31330;PMS5003;34067;39.548;-76.088;2023-03-23T04:47:06;9;8;
31330;PMS5003;34067;39.548;-76.088;2023-03-23T04:49:34;11;11;
31330;PMS5003;34067;39.548;-76.088;2023-03-23T04:52:02;9;9;
31330;PMS5003;34067;39.548;-76.088;2023-03-23T04:54:31;13;12;
31330;PMS5003;34067;39.548;-76.088;2023-03-23T04:56:59;10;10;
31330;PMS5003;34067;39.548;-76.088;2023-03-23T04:59:27;9;9;
31330;PMS5003;34067;39.548;-76.088;2023-03-23T05:03:16;12;12;
31330;PMS5003;34067;39.548;-76.088;2023-03-23T05:05:45;14;13;
31330;PMS5003;34067;39.548;-76.088;2023-03-23T05:08:13;11;11;
31330;PMS5003;34067;39.548;-76.088;2023-03-23T05:10:41;14;13;
31330;PMS5003;34067;39.548;-76.088;2023-03-23T05:13:16;13;11;
31330;PMS5003;34067;39.548;-76.088;2023-03-23T05:15:44;12;11;
31330;PMS5003;34067;39.548;-76.088;2023-03-23T05:18:13;13;12;
31330;PMS5003;34067;39.548;-76.088;2023-03-23T05:20:42;13;11;
31330;PMS5003;34067;39.548;-76.088;2023-03-23T05:23:10;12;12;
31330;PMS5003;34067;39.548;-76.088;2023-03-23T05:25:38;14;14;
31330;PMS5003;34067;39.548;-76.088;2023-03-23T05:28:06;15;15;
31330;PMS5003;34067;39.548;-76.088;2023-03-23T05:30:35;19;17;
31330;PMS5003;34067;39.548;-76.088;2023-03-23T05:33:03;15;13;
31330;PMS5003;34067;39.548;-76.088;2023-03-23T05:35:30;16;14;
31330;PMS5003;34067;39.548;-76.088;2023-03-23T05:37:59;18;18;
31330;PMS5003;34067;39.548;-76.088;2023-03-23T05:40:27;15;15;
31330;PMS5003;34067;39.548;-76.088;2023-03-23T05:42:55;14;14;
31330;PMS5003;34067;39.548;-76.088;2023-03-23T05:45:23;15;15;
31330;PMS5003;34067;39.548;-76.088;2023-03-23T05:47:51;20;17;
31330;PMS5003;34067;39.548;-76.088;2023-03-23T05:50:19;14;14;
31330;PMS5003;34067;39.548;-76.088;2023-03-23T05:52:47;17;17;
31330;PMS5003;34067;39.548;-76.088;2023-03-23T05:55:14;18;18;
31330;PMS5003;34067;39.548;-76.088;2023-03-23T05:57:42;18;17;
31330;PMS5003;34067;39.548;-76.088;2023-03-23T06:00:10;19;18;
31330;PMS5003;34067;39.548;-76.088;2023-03-23T06:02:39;17;17;
31330;PMS5003;34067;39.548;-76.088;2023-03-23T06:05:08;16;15;
31330;PMS5003;34067;39.548;-76.088;2023-03-23T06:07:36;21;19;
31330;PMS5003;34067;39.548;-76.088;2023-03-23T06:10:04;17;17;
31330;PMS5003;34067;39.548;-76.088;2023-03-23T06:12:33;26;23;
31330;PMS5003;34067;39.548;-76.088;2023-03-23T06:15:01;19;17;
31330;PMS5003;34067;39.548;-76.088;2023-03-23T06:17:29;16;16;
31330;PMS5003;34067;39.548;-76.088;2023-03-23T06:19:57;19;17;
31330;PMS5003;34067;39.548;-76.088;2023-03-23T06:22:26;18;15;
31330;PMS5003;34067;39.548;-76.088;2023-03-23T06:24:53;16;15;
31330;PMS5003;34067;39.548;-76.088;2023-03-23T06:27:22;16;16;
31330;PMS5003;34067;39.548;-76.088;2023-03-23T06:29:50;17;15;
31330;PMS5003;34067;39.548;-76.088;2023-03-23T06:32:19;22;20;
31330;PMS5003;34067;39.548;-76.088;2023-03-23T06:34:47;18;16;
31330;PMS5003;34067;39.548;-76.088;2023-03-23T06:37:15;17;16;
31330;PMS5003;34067;39.548;-76.088;2023-03-23T06:39:42;15;15;
31330;PMS5003;34067;39.548;-76.088;2023-03-23T06:42:11;18;16;
31330;PMS5003;34067;39.548;-76.088;2023-03-23T06:44:39;20;20;
31330;PMS5003;34067;39.548;-76.088;2023-03-23T06:47:08;16;16;
31330;PMS5003;34067;39.548;-76.088;2023-03-23T06:49:35;19;17;
31330;PMS5003;34067;39.548;-76.088;2023-03-23T06:52:03;19;17;
31330;PMS5003;34067;39.548;-76.088;2023-03-23T06:54:31;17;16;
31330;PMS5003;34067;39.548;-76.088;2023-03-23T06:56:59;20;20;
31330;PMS5003;34067;39.548;-76.088;2023-03-23T06:59:27;15;14;
31330;PMS5003;34067;39.548;-76.088;2023-03-23T07:01:56;15;15;
31330;PMS5003;34067;39.548;-76.088;2023-03-23T07:04:23;20;19;
31330;PMS5003;34067;39.548;-76.088;2023-03-23T07:06:51;18;16;
31330;PMS5003;34067;39.548;-76.088;2023-03-23T07:09:19;19;18;
31330;PMS5003;34067;39.548;-76.088;2023-03-23T07:11:47;17;16;
31330;PMS5003;34067;39.548;-76.088;2023-03-23T07:14:15;19;18;
31330;PMS5003;34067;39.548;-76.088;2023-03-23T07:16:43;17;16;
31330;PMS5003;34067;39.548;-76.088;2023-03-23T07:19:11;20;19;
31330;PMS5003;34067;39.548;-76.088;2023-03-23T07:21:40;16;15;
31330;PMS5003;34067;39.548;-76.088;2023-03-23T07:24:10;19;17;
31330;PMS5003;34067;39.548;-76.088;2023-03-23T07:26:39;19;18;
31330;PMS5003;34067;39.548;-76.088;2023-03-23T07:29:07;20;20;
31330;PMS5003;34067;39.548;-76.088;2023-03-23T07:31:35;19;18;
31330;PMS5003;34067;39.548;-76.088;2023-03-23T07:34:03;22;20;
31330;PMS5003;34067;39.548;-76.088;2023-03-23T07:36:32;20;19;
31330;PMS5003;34067;39.548;-76.088;2023-03-23T07:38:59;22;21;
31330;PMS5003;34067;39.548;-76.088;2023-03-23T07:41:28;20;18;
31330;PMS5003;34067;39.548;-76.088;2023-03-23T07:43:55;20;19;
31330;PMS5003;34067;39.548;-76.088;2023-03-23T07:46:23;22;20;
31330;PMS5003;34067;39.548;-76.088;2023-03-23T07:48:52;22;20;
31330;PMS5003;34067;39.548;-76.088;2023-03-23T07:51:20;21;20;
31330;PMS5003;34067;39.548;-76.088;2023-03-23T07:53:48;20;20;
31330;PMS5003;34067;39.548;-76.088;2023-03-23T07:56:16;18;17;
31330;PMS5003;34067;39.548;-76.088;2023-03-23T07:58:44;21;21;
31330;PMS5003;34067;39.548;-76.088;2023-03-23T08:01:12;24;21;
31330;PMS5003;34067;39.548;-76.088;2023-03-23T08:03:40;21;19;
31330;PMS5003;34067;39.548;-76.088;2023-03-23T08:06:08;24;21;
31330;PMS5003;34067;39.548;-76.088;2023-03-23T08:08:36;21;20;
31330;PMS5003;34067;39.548;-76.088;2023-03-23T08:11:04;21;21;
31330;PMS5003;34067;39.548;-76.088;2023-03-23T08:13:32;23;21;
31330;PMS5003;34067;39.548;-76.088;2023-03-23T08:16:01;24;23;
31330;PMS5003;34067;39.548;-76.088;2023-03-23T08:18:29;25;24;
31330;PMS5003;34067;39.548;-76.088;2023-03-23T08:20:57;21;21;
31330;PMS5003;34067;39.548;-76.088;2023-03-23T08:23:25;22;20;
31330;PMS5003;34067;39.548;-76.088;2023-03-23T08:25:53;22;21;
31330;PMS5003;34067;39.548;-76.088;2023-03-23T08:28:21;22;20;
31330;PMS5003;34067;39.548;-76.088;2023-03-23T08:30:49;25;23;
31330;PMS5003;34067;39.548;-76.088;2023-03-23T08:33:18;22;22;
31330;PMS5003;34067;39.548;-76.088;2023-03-23T08:35:53;25;23;
31330;PMS5003;34067;39.548;-76.088;2023-03-23T08:38:22;22;22;
31330;PMS5003;34067;39.548;-76.088;2023-03-23T08:40:51;23;22;
31330;PMS5003;34067;39.548;-76.088;2023-03-23T08:43:19;24;23;
31330;PMS5003;34067;39.548;-76.088;2023-03-23T08:45:46;24;19;
31330;PMS5003;34067;39.548;-76.088;2023-03-23T08:48:14;28;26;
31330;PMS5003;34067;39.548;-76.088;2023-03-23T08:50:43;22;21;
31330;PMS5003;34067;39.548;-76.088;2023-03-23T08:53:10;25;23;
31330;PMS5003;34067;39.548;-76.088;2023-03-23T08:55:38;24;23;
31330;PMS5003;34067;39.548;-76.088;2023-03-23T08:58:06;23;23;
31330;PMS5003;34067;39.548;-76.088;2023-03-23T09:00:34;21;21;
31330;PMS5003;34067;39.548;-76.088;2023-03-23T09:03:02;30;27;
31330;PMS5003;34067;39.548;-76.088;2023-03-23T09:05:31;25;22;
31330;PMS5003;34067;39.548;-76.088;2023-03-23T09:07:58;29;28;
31330;PMS5003;34067;39.548;-76.088;2023-03-23T09:10:27;23;21;
31330;PMS5003;34067;39.548;-76.088;2023-03-23T09:12:55;27;26;
31330;PMS5003;34067;39.548;-76.088;2023-03-23T09:15:24;26;26;
31330;PMS5003;34067;39.548;-76.088;2023-03-23T09:17:52;29;28;
31330;PMS5003;34067;39.548;-76.088;2023-03-23T09:20:21;25;24;
31330;PMS5003;34067;39.548;-76.088;2023-03-23T09:22:51;27;26;
31330;PMS5003;34067;39.548;-76.088;2023-03-23T09:25:22;27;25;
31330;PMS5003;34067;39.548;-76.088;2023-03-23T09:27:51;24;24;
31330;PMS5003;34067;39.548;-76.088;2023-03-23T09:30:20;25;23;
31330;PMS5003;34067;39.548;-76.088;2023-03-23T09:32:50;32;30;
31330;PMS5003;34067;39.548;-76.088;2023-03-23T09:35:19;26;26;
31330;PMS5003;34067;39.548;-76.088;2023-03-23T09:37:48;29;28;
31330;PMS5003;34067;39.548;-76.088;2023-03-23T09:40:18;34;33;
31330;PMS5003;34067;39.548;-76.088;2023-03-23T09:42:53;33;32;
31330;PMS5003;34067;39.548;-76.088;2023-03-23T09:45:33;27;26;
31330;PMS5003;34067;39.548;-76.088;2023-03-23T09:48:22;27;26;
31330;PMS5003;34067;39.548;-76.088;2023-03-23T09:51:07;31;28;
31330;PMS5003;34067;39.548;-76.088;2023-03-23T09:53:42;35;32;
31330;PMS5003;34067;39.548;-76.088;2023-03-23T09:56:15;25;24;
31330;PMS5003;34067;39.548;-76.088;2023-03-23T09:58:45;27;26;
31330;PMS5003;34067;39.548;-76.088;2023-03-23T10:01:20;27;27;
31330;PMS5003;34067;39.548;-76.088;2023-03-23T10:03:52;29;28;
31330;PMS5003;34067;39.548;-76.088;2023-03-23T10:06:29;32;30;
31330;PMS5003;34067;39.548;-76.088;2023-03-23T10:08:57;31;29;
31330;PMS5003;34067;39.548;-76.088;2023-03-23T10:11:30;38;36;
31330;PMS5003;34067;39.548;-76.088;2023-03-23T10:14:16;38;37;
31330;PMS5003;34067;39.548;-76.088;2023-03-23T10:16:55;35;32;
31330;PMS5003;34067;39.548;-76.088;2023-03-23T10:19:29;40;36;
31330;PMS5003;34067;39.548;-76.088;2023-03-23T10:22:04;35;33;
31330;PMS5003;34067;39.548;-76.088;2023-03-23T10:24:36;42;40;
31330;PMS5003;34067;39.548;-76.088;2023-03-23T10:27:13;37;35;
31330;PMS5003;34067;39.548;-76.088;2023-03-23T10:29:49;40;37;
31330;PMS5003;34067;39.548;-76.088;2023-03-23T10:32:21;38;34;
31330;PMS5003;34067;39.548;-76.088;2023-03-23T10:35:06;38;37;
31330;PMS5003;34067;39.548;-76.088;2023-03-23T10:37:44;36;33;
31330;PMS5003;34067;39.548;-76.088;2023-03-23T10:40:16;36;34;
31330;PMS5003;34067;39.548;-76.088;2023-03-23T10:42:47;47;45;
31330;PMS5003;34067;39.548;-76.088;2023-03-23T10:45:17;50;47;
31330;PMS5003;34067;39.548;-76.088;2023-03-23T10:47:47;38;37;
31330;PMS5003;34067;39.548;-76.088;2023-03-23T10:50:22;35;35;
31330;PMS5003;34067;39.548;-76.088;2023-03-23T10:52:54;40;40;
31330;PMS5003;34067;39.548;-76.088;2023-03-23T10:55:36;35;32;
31330;PMS5003;34067;39.548;-76.088;2023-03-23T10:58:06;39;36;
31330;PMS5003;34067;39.548;-76.088;2023-03-23T11:00:41;40;39;
31330;PMS5003;34067;39.548;-76.088;2023-03-23T11:03:44;42;40;
31330;PMS5003;34067;39.548;-76.088;2023-03-23T11:06:19;39;37;
31330;PMS5003;34067;39.548;-76.088;2023-03-23T11:08:51;43;39;
31330;PMS5003;34067;39.548;-76.088;2023-03-23T11:11:25;41;37;
31330;PMS5003;34067;39.548;-76.088;2023-03-23T11:13:57;35;34;
31330;PMS5003;34067;39.548;-76.088;2023-03-23T11:16:27;45;41;
31330;PMS5003;34067;39.548;-76.088;2023-03-23T11:18:57;41;36;
31330;PMS5003;34067;39.548;-76.088;2023-03-23T11:21:26;41;37;
31330;PMS5003;34067;39.548;-76.088;2023-03-23T11:23:55;43;40;
31330;PMS5003;34067;39.548;-76.088;2023-03-23T11:26:27;42;39;
31330;PMS5003;34067;39.548;-76.088;2023-03-23T11:28:57;39;38;
31330;PMS5003;34067;39.548;-76.088;2023-03-23T11:31:30;34;33;
31330;PMS5003;34067;39.548;-76.088;2023-03-23T11:34:02;33;32;
31330;PMS5003;34067;39.548;-76.088;2023-03-23T11:36:32;38;35;
31330;PMS5003;34067;39.548;-76.088;2023-03-23T11:39:03;36;35;
31330;PMS5003;34067;39.548;-76.088;2023-03-23T11:41:46;37;34;
31330;PMS5003;34067;39.548;-76.088;2023-03-23T11:44:14;46;42;
31330;PMS5003;34067;39.548;-76.088;2023-03-23T11:46:46;42;40;
31330;PMS5003;34067;39.548;-76.088;2023-03-23T11:49:27;39;37;
31330;PMS5003;34067;39.548;-76.088;2023-03-23T11:52:04;39;37;
31330;PMS5003;34067;39.548;-76.088;2023-03-23T11:54:39;34;34;
31330;PMS5003;34067;39.548;-76.088;2023-03-23T11:57:12;37;35;
31330;PMS5003;34067;39.548;-76.088;2023-03-23T11:59:40;38;36;
31330;PMS5003;34067;39.548;-76.088;2023-03-23T12:02:17;39;37;
31330;PMS5003;34067;39.548;-76.088;2023-03-23T12:05:10;38;38;
31330;PMS5003;34067;39.548;-76.088;2023-03-23T12:07:58;38;35;
31330;PMS5003;34067;39.548;-76.088;2023-03-23T12:10:40;45;42;
31330;PMS5003;34067;39.548;-76.088;2023-03-23T12:13:18;44;42;
31330;PMS5003;34067;39.548;-76.088;2023-03-23T12:15:57;38;34;
31330;PMS5003;34067;39.548;-76.088;2023-03-23T12:18:40;45;41;
31330;PMS5003;34067;39.548;-76.088;2023-03-23T12:21:17;42;40;
31330;PMS5003;34067;39.548;-76.088;2023-03-23T12:23:54;36;35;
31330;PMS5003;34067;39.548;-76.088;2023-03-23T12:26:28;37;32;
31330;PMS5003;34067;39.548;-76.088;2023-03-23T12:29:13;44;38;
31330;PMS5003;34067;39.548;-76.088;2023-03-23T12:31:55;44;41;
31330;PMS5003;34067;39.548;-76.088;2023-03-23T12:34:36;41;38;
31330;PMS5003;34067;39.548;-76.088;2023-03-23T12:37:13;41;40;
31330;PMS5003;34067;39.548;-76.088;2023-03-23T12:39:59;42;40;
31330;PMS5003;34067;39.548;-76.088;2023-03-23T12:42:45;38;36;
31330;PMS5003;34067;39.548;-76.088;2023-03-23T12:45:23;38;37;
31330;PMS5003;34067;39.548;-76.088;2023-03-23T12:48:08;46;42;
31330;PMS5003;34067;39.548;-76.088;2023-03-23T12:50:40;44;42;
31330;PMS5003;34067;39.548;-76.088;2023-03-23T12:53:13;47;40;
31330;PMS5003;34067;39.548;-76.088;2023-03-23T12:55:47;45;43;
31330;PMS5003;34067;39.548;-76.088;2023-03-23T12:58:19;46;43;
31330;PMS5003;34067;39.548;-76.088;2023-03-23T13:00:54;53;43;
31330;PMS5003;34067;39.548;-76.088;2023-03-23T13:03:27;41;41;
31330;PMS5003;34067;39.548;-76.088;2023-03-23T13:06:02;41;39;
31330;PMS5003;34067;39.548;-76.088;2023-03-23T13:08:36;45;43;
31330;PMS5003;34067;39.548;-76.088;2023-03-23T13:11:10;40;37;
31330;PMS5003;34067;39.548;-76.088;2023-03-23T13:13:45;41;40;
31330;PMS5003;34067;39.548;-76.088;2023-03-23T13:16:18;39;36;
31330;PMS5003;34067;39.548;-76.088;2023-03-23T13:19:00;41;40;
31330;PMS5003;34067;39.548;-76.088;2023-03-23T13:21:36;45;44;
31330;PMS5003;34067;39.548;-76.088;2023-03-23T13:24:12;38;36;
31330;PMS5003;34067;39.548;-76.088;2023-03-23T13:26:42;44;42;
31330;PMS5003;34067;39.548;-76.088;2023-03-23T13:29:12;43;42;
31330;PMS5003;34067;39.548;-76.088;2023-03-23T13:31:42;43;40;
31330;PMS5003;34067;39.548;-76.088;2023-03-23T13:34:12;46;43;
31330;PMS5003;34067;39.548;-76.088;2023-03-23T13:36:54;41;40;
31330;PMS5003;34067;39.548;-76.088;2023-03-23T13:39:24;35;35;
31330;PMS5003;34067;39.548;-76.088;2023-03-23T13:42:04;54;52;
31330;PMS5003;34067;39.548;-76.088;2023-03-23T13:44:55;41;38;
31330;PMS5003;34067;39.548;-76.088;2023-03-23T13:47:36;42;41;
31330;PMS5003;34067;39.548;-76.088;2023-03-23T13:50:11;45;44;
31330;PMS5003;34067;39.548;-76.088;2023-03-23T13:52:53;44;42;
31330;PMS5003;34067;39.548;-76.088;2023-03-23T13:55:39;49;46;
31330;PMS5003;34067;39.548;-76.088;2023-03-23T13:58:12;40;39;
31330;PMS5003;34067;39.548;-76.088;2023-03-23T14:00:50;43;39;
31330;PMS5003;34067;39.548;-76.088;2023-03-23T14:03:38;48;44;
31330;PMS5003;34067;39.548;-76.088;2023-03-23T14:06:10;41;38;
31330;PMS5003;34067;39.548;-76.088;2023-03-23T14:08:42;44;40;
31330;PMS5003;34067;39.548;-76.088;2023-03-23T14:11:13;36;34;
31330;PMS5003;34067;39.548;-76.088;2023-03-23T14:13:45;46;43;
31330;PMS5003;34067;39.548;-76.088;2023-03-23T14:16:20;44;40;
31330;PMS5003;34067;39.548;-76.088;2023-03-23T14:18:51;39;38;
31330;PMS5003;34067;39.548;-76.088;2023-03-23T14:21:23;45;42;
31330;PMS5003;34067;39.548;-76.088;2023-03-23T14:23:59;42;41;
31330;PMS5003;34067;39.548;-76.088;2023-03-23T14:26:29;45;42;
31330;PMS5003;34067;39.548;-76.088;2023-03-23T14:29:01;53;49;
31330;PMS5003;34067;39.548;-76.088;2023-03-23T14:31:31;46;44;
31330;PMS5003;34067;39.548;-76.088;2023-03-23T14:34:01;47;45;
31330;PMS5003;34067;39.548;-76.088;2023-03-23T14:36:31;46;43;
31330;PMS5003;34067;39.548;-76.088;2023-03-23T14:39:04;47;46;
31330;PMS5003;34067;39.548;-76.088;2023-03-23T14:41:38;46;43;
31330;PMS5003;34067;39.548;-76.088;2023-03-23T14:44:08;46;44;
31330;PMS5003;34067;39.548;-76.088;2023-03-23T14:46:39;47;40;
31330;PMS5003;34067;39.548;-76.088;2023-03-23T14:49:10;43;40;
31330;PMS5003;34067;39.548;-76.088;2023-03-23T14:51:46;44;43;
31330;PMS5003;34067;39.548;-76.088;2023-03-23T14:54:15;43;42;
31330;PMS5003;34067;39.548;-76.088;2023-03-23T14:56:49;44;41;
31330;PMS5003;34067;39.548;-76.088;2023-03-23T14:59:17;40;39;
31330;PMS5003;34067;39.548;-76.088;2023-03-23T15:01:46;41;39;
31330;PMS5003;34067;39.548;-76.088;2023-03-23T15:04:17;49;48;
31330;PMS5003;34067;39.548;-76.088;2023-03-23T15:06:48;48;44;
31330;PMS5003;34067;39.548;-76.088;2023-03-23T15:09:22;50;45;
31330;PMS5003;34067;39.548;-76.088;2023-03-23T15:11:52;48;44;
31330;PMS5003;34067;39.548;-76.088;2023-03-23T15:14:22;51;47;
31330;PMS5003;34067;39.548;-76.088;2023-03-23T15:16:54;48;44;
31330;PMS5003;34067;39.548;-76.088;2023-03-23T15:19:26;45;43;
31330;PMS5003;34067;39.548;-76.088;2023-03-23T15:22:04;51;49;
31330;PMS5003;34067;39.548;-76.088;2023-03-23T15:24:34;51;45;
31330;PMS5003;34067;39.548;-76.088;2023-03-23T15:27:13;42;41;
31330;PMS5003;34067;39.548;-76.088;2023-03-23T15:29:50;51;45;
31330;PMS5003;34067;39.548;-76.088;2023-03-23T15:32:21;49;46;
31330;PMS5003;34067;39.548;-76.088;2023-03-23T15:34:51;45;43;
31330;PMS5003;34067;39.548;-76.088;2023-03-23T15:37:21;48;46;
31330;PMS5003;34067;39.548;-76.088;2023-03-23T15:39:52;39;37;
31330;PMS5003;34067;39.548;-76.088;2023-03-23T15:42:22;40;39;
31330;PMS5003;34067;39.548;-76.088;2023-03-23T15:44:56;44;43;
31330;PMS5003;34067;39.548;-76.088;2023-03-23T15:47:34;41;40;
31330;PMS5003;34067;39.548;-76.088;2023-03-23T15:50:10;49;46;
31330;PMS5003;34067;39.548;-76.088;2023-03-23T15:52:40;46;40;
31330;PMS5003;34067;39.548;-76.088;2023-03-23T15:55:24;46;43;
31330;PMS5003;34067;39.548;-76.088;2023-03-23T15:57:54;49;46;
31330;PMS5003;34067;39.548;-76.088;2023-03-23T16:00:24;40;35;
31330;PMS5003;34067;39.548;-76.088;2023-03-23T16:02:56;43;40;
31330;PMS5003;34067;39.548;-76.088;2023-03-23T16:05:27;42;40;
31330;PMS5003;34067;39.548;-76.088;2023-03-23T16:07:55;54;49;
31330;PMS5003;34067;39.548;-76.088;2023-03-23T16:10:26;41;40;
31330;PMS5003;34067;39.548;-76.088;2023-03-23T16:12:56;51;46;
31330;PMS5003;34067;39.548;-76.088;2023-03-23T16:15:24;39;37;
31330;PMS5003;34067;39.548;-76.088;2023-03-23T16:17:53;43;42;
31330;PMS5003;34067;39.548;-76.088;2023-03-23T16:20:21;52;49;
31330;PMS5003;34067;39.548;-76.088;2023-03-23T16:22:50;44;43;